sensor_id;sensor_type;location;lat;lon;timestamp;temperature;humidity
4615;DHT22;2320;51.362;6.946;2022-08-04T00:00:23;20.80;99.90
4615;DHT22;2320;51.362;6.946;2022-08-04T00:07:55;21.00;99.90
4615;DHT22;2320;51.362;6.946;2022-08-04T00:10:23;20.70;99.90
4615;DHT22;2320;51.362;6.946;2022-08-04T00:12:51;20.50;99.90
4615;DHT22;2320;51.362;6.946;2022-08-04T00:15:20;20.70;99.90
4615;DHT22;2320;51.362;6.946;2022-08-04T00:17:59;20.60;99.90
4615;DHT22;2320;51.362;6.946;2022-08-04T00:20:28;20.70;99.90
4615;DHT22;2320;51.362;6.946;2022-08-04T00:22:54;20.70;99.90
4615;DHT22;2320;51.362;6.946;2022-08-04T00:25:20;20.80;99.90
4615;DHT22;2320;51.362;6.946;2022-08-04T00:27:45;20.70;99.90
4615;DHT22;2320;51.362;6.946;2022-08-04T00:30:11;20.80;99.90
4615;DHT22;2320;51.362;6.946;2022-08-04T00:32:38;20.90;99.90
4615;DHT22;2320;51.362;6.946;2022-08-04T00:35:04;20.70;99.90
4615;DHT22;2320;51.362;6.946;2022-08-04T00:37:30;20.60;99.90
4615;DHT22;2320;51.362;6.946;2022-08-04T00:39:57;20.80;99.90
4615;DHT22;2320;51.362;6.946;2022-08-04T00:42:44;20.80;99.90
4615;DHT22;2320;51.362;6.946;2022-08-04T01:00:09;20.80;99.90
4615;DHT22;2320;51.362;6.946;2022-08-04T01:07:56;20.70;99.90
4615;DHT22;2320;51.362;6.946;2022-08-04T01:10:29;20.60;99.90
4615;DHT22;2320;51.362;6.946;2022-08-04T01:18:07;20.30;99.90
4615;DHT22;2320;51.362;6.946;2022-08-04T01:20:33;20.30;99.90
4615;DHT22;2320;51.362;6.946;2022-08-04T01:28:35;20.30;99.90
4615;DHT22;2320;51.362;6.946;2022-08-04T01:31:10;20.30;99.90
4615;DHT22;2320;51.362;6.946;2022-08-04T01:33:39;20.40;99.90
4615;DHT22;2320;51.362;6.946;2022-08-04T01:36:07;20.60;99.90
4615;DHT22;2320;51.362;6.946;2022-08-04T01:38:34;20.50;99.90
4615;DHT22;2320;51.362;6.946;2022-08-04T01:41:05;20.30;99.90
4615;DHT22;2320;51.362;6.946;2022-08-04T01:43:31;20.20;99.90
4615;DHT22;2320;51.362;6.946;2022-08-04T01:45:58;20.20;99.90
4615;DHT22;2320;51.362;6.946;2022-08-04T01:48:24;20.00;99.90
4615;DHT22;2320;51.362;6.946;2022-08-04T01:50:55;20.10;99.90
4615;DHT22;2320;51.362;6.946;2022-08-04T01:53:21;20.10;99.90
4615;DHT22;2320;51.362;6.946;2022-08-04T01:55:48;20.00;99.90
4615;DHT22;2320;51.362;6.946;2022-08-04T01:58:16;20.00;99.90
4615;DHT22;2320;51.362;6.946;2022-08-04T02:00:43;20.20;99.90
4615;DHT22;2320;51.362;6.946;2022-08-04T02:03:14;20.20;99.90
4615;DHT22;2320;51.362;6.946;2022-08-04T02:05:39;20.10;99.90
4615;DHT22;2320;51.362;6.946;2022-08-04T02:13:09;20.20;99.90
4615;DHT22;2320;51.362;6.946;2022-08-04T02:15:52;20.00;99.90
4615;DHT22;2320;51.362;6.946;2022-08-04T02:18:23;20.10;99.90
4615;DHT22;2320;51.362;6.946;2022-08-04T02:20:50;20.20;99.90
4615;DHT22;2320;51.362;6.946;2022-08-04T02:25:54;20.20;99.90
4615;DHT22;2320;51.362;6.946;2022-08-04T02:30:52;20.30;99.90
4615;DHT22;2320;51.362;6.946;2022-08-04T02:33:23;20.30;99.90
4615;DHT22;2320;51.362;6.946;2022-08-04T02:35:52;20.20;99.90
4615;DHT22;2320;51.362;6.946;2022-08-04T02:40:59;20.20;99.90
4615;DHT22;2320;51.362;6.946;2022-08-04T02:43:26;20.20;99.90
4615;DHT22;2320;51.362;6.946;2022-08-04T02:45:54;20.20;99.90
4615;DHT22;2320;51.362;6.946;2022-08-04T02:48:21;20.10;99.90
4615;DHT22;2320;51.362;6.946;2022-08-04T02:50:48;20.20;99.90
4615;DHT22;2320;51.362;6.946;2022-08-04T02:53:15;20.20;99.90
4615;DHT22;2320;51.362;6.946;2022-08-04T02:55:42;20.10;99.90
4615;DHT22;2320;51.362;6.946;2022-08-04T02:58:08;20.20;99.90
4615;DHT22;2320;51.362;6.946;2022-08-04T03:00:34;20.30;99.90
4615;DHT22;2320;51.362;6.946;2022-08-04T03:03:07;20.30;99.90
4615;DHT22;2320;51.362;6.946;2022-08-04T03:20:36;20.20;99.90
4615;DHT22;2320;51.362;6.946;2022-08-04T03:23:16;20.20;99.90
4615;DHT22;2320;51.362;6.946;2022-08-04T03:33:39;19.90;99.90
4615;DHT22;2320;51.362;6.946;2022-08-04T03:44:14;19.90;99.90
4615;DHT22;2320;51.362;6.946;2022-08-04T03:49:40;19.70;99.90
4615;DHT22;2320;51.362;6.946;2022-08-04T03:52:23;19.70;99.90
4615;DHT22;2320;51.362;6.946;2022-08-04T03:55:37;19.60;99.90
4615;DHT22;2320;51.362;6.946;2022-08-04T04:00:33;19.20;99.90
4615;DHT22;2320;51.362;6.946;2022-08-04T04:10:45;19.40;99.90
4615;DHT22;2320;51.362;6.946;2022-08-04T04:13:18;19.30;99.90
4615;DHT22;2320;51.362;6.946;2022-08-04T04:16:31;19.20;99.90
4615;DHT22;2320;51.362;6.946;2022-08-04T04:31:31;19.20;99.90
4615;DHT22;2320;51.362;6.946;2022-08-04T04:36:35;19.30;99.90
4615;DHT22;2320;51.362;6.946;2022-08-04T04:39:11;19.20;99.90
4615;DHT22;2320;51.362;6.946;2022-08-04T04:46:35;19.20;99.90
4615;DHT22;2320;51.362;6.946;2022-08-04T04:49:04;19.20;99.90
4615;DHT22;2320;51.362;6.946;2022-08-04T04:51:36;19.20;99.90
4615;DHT22;2320;51.362;6.946;2022-08-04T04:59:17;19.10;99.90
4615;DHT22;2320;51.362;6.946;2022-08-04T05:09:50;19.70;99.90
4615;DHT22;2320;51.362;6.946;2022-08-04T05:14:47;19.50;99.90
4615;DHT22;2320;51.362;6.946;2022-08-04T05:19:50;19.60;99.90
4615;DHT22;2320;51.362;6.946;2022-08-04T05:22:28;19.70;99.90
4615;DHT22;2320;51.362;6.946;2022-08-04T05:25:00;20.00;99.90
4615;DHT22;2320;51.362;6.946;2022-08-04T05:27:33;20.70;99.90
4615;DHT22;2320;51.362;6.946;2022-08-04T05:30:01;22.20;99.90
4615;DHT22;2320;51.362;6.946;2022-08-04T05:32:30;23.40;99.90
4615;DHT22;2320;51.362;6.946;2022-08-04T05:35:02;24.60;99.90
4615;DHT22;2320;51.362;6.946;2022-08-04T05:37:28;25.30;99.90
4615;DHT22;2320;51.362;6.946;2022-08-04T05:39:58;25.90;99.90
4615;DHT22;2320;51.362;6.946;2022-08-04T05:42:25;26.10;99.90
4615;DHT22;2320;51.362;6.946;2022-08-04T05:44:51;27.30;99.90
4615;DHT22;2320;51.362;6.946;2022-08-04T05:47:16;28.30;99.90
4615;DHT22;2320;51.362;6.946;2022-08-04T05:49:42;28.80;99.90
4615;DHT22;2320;51.362;6.946;2022-08-04T05:52:09;28.70;99.90
4615;DHT22;2320;51.362;6.946;2022-08-04T05:54:35;29.70;99.90
4615;DHT22;2320;51.362;6.946;2022-08-04T05:57:02;30.40;99.90
4615;DHT22;2320;51.362;6.946;2022-08-04T05:59:28;30.00;99.90
4615;DHT22;2320;51.362;6.946;2022-08-04T06:01:55;30.80;99.90
4615;DHT22;2320;51.362;6.946;2022-08-04T06:04:23;31.70;99.90
4615;DHT22;2320;51.362;6.946;2022-08-04T06:06:49;31.40;99.90
4615;DHT22;2320;51.362;6.946;2022-08-04T06:09:15;32.20;99.90
4615;DHT22;2320;51.362;6.946;2022-08-04T06:11:40;31.80;99.90
4615;DHT22;2320;51.362;6.946;2022-08-04T06:14:08;31.30;99.90
4615;DHT22;2320;51.362;6.946;2022-08-04T06:16:36;30.70;99.90
4615;DHT22;2320;51.362;6.946;2022-08-04T06:19:03;31.30;99.90
4615;DHT22;2320;51.362;6.946;2022-08-04T06:21:30;32.70;99.90
4615;DHT22;2320;51.362;6.946;2022-08-04T06:23:56;34.10;99.90
4615;DHT22;2320;51.362;6.946;2022-08-04T06:26:22;34.00;98.90
4615;DHT22;2320;51.362;6.946;2022-08-04T06:28:50;33.90;98.90
4615;DHT22;2320;51.362;6.946;2022-08-04T06:31:16;33.20;98.00
4615;DHT22;2320;51.362;6.946;2022-08-04T06:34:01;33.40;97.70
4615;DHT22;2320;51.362;6.946;2022-08-04T06:36:27;33.80;95.80
4615;DHT22;2320;51.362;6.946;2022-08-04T06:38:53;34.00;95.60
4615;DHT22;2320;51.362;6.946;2022-08-04T06:41:18;35.10;95.10
4615;DHT22;2320;51.362;6.946;2022-08-04T06:43:44;36.00;94.70
4615;DHT22;2320;51.362;6.946;2022-08-04T06:46:11;36.50;91.30
4615;DHT22;2320;51.362;6.946;2022-08-04T06:48:37;35.20;90.20
4615;DHT22;2320;51.362;6.946;2022-08-04T06:51:03;35.20;90.40
4615;DHT22;2320;51.362;6.946;2022-08-04T06:53:28;34.70;91.30
4615;DHT22;2320;51.362;6.946;2022-08-04T06:55:55;36.20;90.30
4615;DHT22;2320;51.362;6.946;2022-08-04T06:58:21;37.50;87.20
4615;DHT22;2320;51.362;6.946;2022-08-04T07:00:47;37.70;86.60
4615;DHT22;2320;51.362;6.946;2022-08-04T07:03:14;38.20;79.40
4615;DHT22;2320;51.362;6.946;2022-08-04T07:05:41;36.50;79.70
4615;DHT22;2320;51.362;6.946;2022-08-04T07:08:08;35.50;81.80
4615;DHT22;2320;51.362;6.946;2022-08-04T07:10:34;35.50;83.20
4615;DHT22;2320;51.362;6.946;2022-08-04T07:13:00;35.60;80.80
4615;DHT22;2320;51.362;6.946;2022-08-04T07:15:28;36.10;81.60
4615;DHT22;2320;51.362;6.946;2022-08-04T07:17:54;37.50;78.30
4615;DHT22;2320;51.362;6.946;2022-08-04T07:20:24;38.70;77.80
4615;DHT22;2320;51.362;6.946;2022-08-04T07:22:49;39.20;76.50
4615;DHT22;2320;51.362;6.946;2022-08-04T07:25:15;38.60;73.70
4615;DHT22;2320;51.362;6.946;2022-08-04T07:27:43;37.80;73.10
4615;DHT22;2320;51.362;6.946;2022-08-04T07:30:09;36.60;74.50
4615;DHT22;2320;51.362;6.946;2022-08-04T07:32:36;36.80;76.50
4615;DHT22;2320;51.362;6.946;2022-08-04T07:35:02;37.60;76.10
4615;DHT22;2320;51.362;6.946;2022-08-04T07:37:28;38.10;76.50
4615;DHT22;2320;51.362;6.946;2022-08-04T07:39:53;37.30;73.00
4615;DHT22;2320;51.362;6.946;2022-08-04T07:42:19;38.40;75.90
4615;DHT22;2320;51.362;6.946;2022-08-04T07:44:45;39.50;72.40
4615;DHT22;2320;51.362;6.946;2022-08-04T07:47:11;40.00;69.90
4615;DHT22;2320;51.362;6.946;2022-08-04T07:49:36;40.20;68.80
4615;DHT22;2320;51.362;6.946;2022-08-04T07:52:03;39.80;67.00
4615;DHT22;2320;51.362;6.946;2022-08-04T07:54:28;40.10;69.10
4615;DHT22;2320;51.362;6.946;2022-08-04T07:56:54;40.40;68.90
4615;DHT22;2320;51.362;6.946;2022-08-04T07:59:19;40.30;67.10
4615;DHT22;2320;51.362;6.946;2022-08-04T08:01:45;40.80;65.60
4615;DHT22;2320;51.362;6.946;2022-08-04T08:04:11;40.80;65.20
4615;DHT22;2320;51.362;6.946;2022-08-04T08:06:37;41.00;64.30
4615;DHT22;2320;51.362;6.946;2022-08-04T08:09:08;41.80;63.80
4615;DHT22;2320;51.362;6.946;2022-08-04T08:11:34;41.80;63.30
4615;DHT22;2320;51.362;6.946;2022-08-04T08:14:00;42.20;60.90
4615;DHT22;2320;51.362;6.946;2022-08-04T08:16:26;42.30;60.50
4615;DHT22;2320;51.362;6.946;2022-08-04T08:18:53;42.50;59.80
4615;DHT22;2320;51.362;6.946;2022-08-04T08:21:19;42.40;59.00
4615;DHT22;2320;51.362;6.946;2022-08-04T08:23:45;42.30;59.10
4615;DHT22;2320;51.362;6.946;2022-08-04T08:26:10;42.80;58.80
4615;DHT22;2320;51.362;6.946;2022-08-04T08:28:36;42.50;58.40
4615;DHT22;2320;51.362;6.946;2022-08-04T08:31:02;42.40;58.30
4615;DHT22;2320;51.362;6.946;2022-08-04T08:33:27;42.60;57.80
4615;DHT22;2320;51.362;6.946;2022-08-04T08:38:32;43.50;57.50
4615;DHT22;2320;51.362;6.946;2022-08-04T08:41:20;43.30;55.50
4615;DHT22;2320;51.362;6.946;2022-08-04T08:46:19;41.50;57.90
4615;DHT22;2320;51.362;6.946;2022-08-04T08:54:14;43.30;55.20
4615;DHT22;2320;51.362;6.946;2022-08-04T09:02:41;42.90;56.40
4615;DHT22;2320;51.362;6.946;2022-08-04T09:10:41;42.20;56.20
4615;DHT22;2320;51.362;6.946;2022-08-04T09:16:19;41.50;56.60
4615;DHT22;2320;51.362;6.946;2022-08-04T09:18:58;40.90;57.40
4615;DHT22;2320;51.362;6.946;2022-08-04T09:21:36;40.70;57.80
4615;DHT22;2320;51.362;6.946;2022-08-04T09:24:19;40.40;58.10
4615;DHT22;2320;51.362;6.946;2022-08-04T09:34:19;42.00;56.20
4615;DHT22;2320;51.362;6.946;2022-08-04T09:36:53;41.10;56.30
4615;DHT22;2320;51.362;6.946;2022-08-04T09:39:36;39.70;57.20
4615;DHT22;2320;51.362;6.946;2022-08-04T09:42:22;39.10;59.10
4615;DHT22;2320;51.362;6.946;2022-08-04T09:49:53;38.30;60.70
4615;DHT22;2320;51.362;6.946;2022-08-04T09:54:50;37.30;63.80
4615;DHT22;2320;51.362;6.946;2022-08-04T09:57:23;37.70;63.30
4615;DHT22;2320;51.362;6.946;2022-08-04T10:02:26;38.60;62.00
4615;DHT22;2320;51.362;6.946;2022-08-04T10:04:55;39.40;60.90
4615;DHT22;2320;51.362;6.946;2022-08-04T10:10:06;40.90;58.40
4615;DHT22;2320;51.362;6.946;2022-08-04T10:12:43;41.70;58.20
4615;DHT22;2320;51.362;6.946;2022-08-04T10:28:44;38.90;59.00
4615;DHT22;2320;51.362;6.946;2022-08-04T10:31:12;38.00;59.90
4615;DHT22;2320;51.362;6.946;2022-08-04T10:33:51;37.30;61.70
4615;DHT22;2320;51.362;6.946;2022-08-04T10:36:20;37.50;62.20
4615;DHT22;2320;51.362;6.946;2022-08-04T10:41:26;37.20;62.70
4615;DHT22;2320;51.362;6.946;2022-08-04T10:46:28;36.70;64.70
4615;DHT22;2320;51.362;6.946;2022-08-04T10:48:56;36.60;65.00
4615;DHT22;2320;51.362;6.946;2022-08-04T10:53:49;37.00;64.40
4615;DHT22;2320;51.362;6.946;2022-08-04T10:56:21;37.00;64.50
4615;DHT22;2320;51.362;6.946;2022-08-04T10:58:49;36.80;64.70
4615;DHT22;2320;51.362;6.946;2022-08-04T11:01:32;36.70;65.40
4615;DHT22;2320;51.362;6.946;2022-08-04T11:04:00;37.20;66.30
4615;DHT22;2320;51.362;6.946;2022-08-04T11:06:28;38.10;66.80
4615;DHT22;2320;51.362;6.946;2022-08-04T11:08:54;38.70;65.00
4615;DHT22;2320;51.362;6.946;2022-08-04T11:11:30;38.50;64.00
4615;DHT22;2320;51.362;6.946;2022-08-04T11:16:35;38.00;63.50
4615;DHT22;2320;51.362;6.946;2022-08-04T11:21:33;37.60;63.30
4615;DHT22;2320;51.362;6.946;2022-08-04T11:24:04;37.00;61.80
4615;DHT22;2320;51.362;6.946;2022-08-04T11:26:37;36.80;66.00
4615;DHT22;2320;51.362;6.946;2022-08-04T11:29:04;36.80;65.50
4615;DHT22;2320;51.362;6.946;2022-08-04T11:31:38;37.00;66.40
4615;DHT22;2320;51.362;6.946;2022-08-04T11:34:10;37.10;65.40
4615;DHT22;2320;51.362;6.946;2022-08-04T11:42:30;36.30;65.70
4615;DHT22;2320;51.362;6.946;2022-08-04T11:50:04;35.60;69.30
4615;DHT22;2320;51.362;6.946;2022-08-04T11:52:33;35.20;70.50
4615;DHT22;2320;51.362;6.946;2022-08-04T11:55:00;35.00;71.90
4615;DHT22;2320;51.362;6.946;2022-08-04T11:57:26;34.80;72.70
4615;DHT22;2320;51.362;6.946;2022-08-04T11:59:54;34.60;73.10
4615;DHT22;2320;51.362;6.946;2022-08-04T12:04:51;34.20;73.80
4615;DHT22;2320;51.362;6.946;2022-08-04T12:07:20;33.90;72.90
4615;DHT22;2320;51.362;6.946;2022-08-04T12:09:51;33.80;76.00
4615;DHT22;2320;51.362;6.946;2022-08-04T12:17:42;33.70;76.10
4615;DHT22;2320;51.362;6.946;2022-08-04T12:20:09;34.00;78.70
4615;DHT22;2320;51.362;6.946;2022-08-04T12:22:40;34.10;78.40
4615;DHT22;2320;51.362;6.946;2022-08-04T12:25:08;34.10;77.30
4615;DHT22;2320;51.362;6.946;2022-08-04T12:27:45;34.20;79.30
4615;DHT22;2320;51.362;6.946;2022-08-04T12:30:11;34.10;78.30
4615;DHT22;2320;51.362;6.946;2022-08-04T12:32:38;34.00;80.10
4615;DHT22;2320;51.362;6.946;2022-08-04T12:35:18;34.10;80.80
4615;DHT22;2320;51.362;6.946;2022-08-04T12:40:39;34.20;79.90
4615;DHT22;2320;51.362;6.946;2022-08-04T12:45:50;34.10;81.10
4615;DHT22;2320;51.362;6.946;2022-08-04T12:48:17;34.00;80.40
4615;DHT22;2320;51.362;6.946;2022-08-04T12:50:46;34.10;82.00
4615;DHT22;2320;51.362;6.946;2022-08-04T12:53:12;34.20;80.80
4615;DHT22;2320;51.362;6.946;2022-08-04T12:55:43;34.20;79.80
4615;DHT22;2320;51.362;6.946;2022-08-04T12:58:14;34.20;80.90
4615;DHT22;2320;51.362;6.946;2022-08-04T13:00:41;34.20;80.70
4615;DHT22;2320;51.362;6.946;2022-08-04T13:03:10;34.30;81.60
4615;DHT22;2320;51.362;6.946;2022-08-04T13:05:36;34.40;81.50
4615;DHT22;2320;51.362;6.946;2022-08-04T13:08:03;34.60;80.30
4615;DHT22;2320;51.362;6.946;2022-08-04T13:10:29;34.60;79.90
4615;DHT22;2320;51.362;6.946;2022-08-04T13:12:56;34.60;80.30
4615;DHT22;2320;51.362;6.946;2022-08-04T13:15:23;34.40;82.00
4615;DHT22;2320;51.362;6.946;2022-08-04T13:17:50;34.40;80.20
4615;DHT22;2320;51.362;6.946;2022-08-04T13:20:30;34.40;81.80
4615;DHT22;2320;51.362;6.946;2022-08-04T13:22:57;34.40;82.90
4615;DHT22;2320;51.362;6.946;2022-08-04T13:25:25;34.60;84.00
4615;DHT22;2320;51.362;6.946;2022-08-04T13:27:51;34.60;84.00
4615;DHT22;2320;51.362;6.946;2022-08-04T13:30:17;34.40;84.40
4615;DHT22;2320;51.362;6.946;2022-08-04T13:32:44;34.40;84.60
4615;DHT22;2320;51.362;6.946;2022-08-04T13:35:10;34.30;82.60
4615;DHT22;2320;51.362;6.946;2022-08-04T13:37:36;34.40;83.80
4615;DHT22;2320;51.362;6.946;2022-08-04T13:40:04;34.60;84.50
4615;DHT22;2320;51.362;6.946;2022-08-04T13:42:30;34.60;83.70
4615;DHT22;2320;51.362;6.946;2022-08-04T13:44:58;34.70;84.40
4615;DHT22;2320;51.362;6.946;2022-08-04T13:47:26;34.80;83.60
4615;DHT22;2320;51.362;6.946;2022-08-04T13:50:05;34.50;83.50
4615;DHT22;2320;51.362;6.946;2022-08-04T13:52:31;34.70;83.70
4615;DHT22;2320;51.362;6.946;2022-08-04T13:54:57;34.60;83.90
4615;DHT22;2320;51.362;6.946;2022-08-04T13:57:30;34.70;83.70
4615;DHT22;2320;51.362;6.946;2022-08-04T14:00:06;34.90;82.40
4615;DHT22;2320;51.362;6.946;2022-08-04T14:02:43;34.80;82.00
4615;DHT22;2320;51.362;6.946;2022-08-04T14:07:44;34.80;82.00
4615;DHT22;2320;51.362;6.946;2022-08-04T14:10:11;34.70;82.50
4615;DHT22;2320;51.362;6.946;2022-08-04T14:12:46;34.70;83.20
4615;DHT22;2320;51.362;6.946;2022-08-04T14:18:16;34.30;81.80
4615;DHT22;2320;51.362;6.946;2022-08-04T14:23:23;34.00;83.20
4615;DHT22;2320;51.362;6.946;2022-08-04T14:25:48;34.00;84.20
4615;DHT22;2320;51.362;6.946;2022-08-04T14:28:14;34.00;84.20
4615;DHT22;2320;51.362;6.946;2022-08-04T14:30:51;33.80;83.60
4615;DHT22;2320;51.362;6.946;2022-08-04T14:33:16;33.60;85.00
4615;DHT22;2320;51.362;6.946;2022-08-04T14:35:42;33.30;86.20
4615;DHT22;2320;51.362;6.946;2022-08-04T14:38:20;33.10;86.30
4615;DHT22;2320;51.362;6.946;2022-08-04T14:40:46;32.90;87.60
4615;DHT22;2320;51.362;6.946;2022-08-04T14:43:13;32.80;87.90
4615;DHT22;2320;51.362;6.946;2022-08-04T14:45:42;32.80;88.70
4615;DHT22;2320;51.362;6.946;2022-08-04T14:48:11;32.70;89.60
4615;DHT22;2320;51.362;6.946;2022-08-04T14:50:41;32.40;89.50
4615;DHT22;2320;51.362;6.946;2022-08-04T14:53:11;32.20;90.60
4615;DHT22;2320;51.362;6.946;2022-08-04T14:55:37;32.20;91.10
4615;DHT22;2320;51.362;6.946;2022-08-04T14:58:04;32.00;91.60
4615;DHT22;2320;51.362;6.946;2022-08-04T15:00:32;32.00;92.00
4615;DHT22;2320;51.362;6.946;2022-08-04T15:03:02;31.90;92.50
4615;DHT22;2320;51.362;6.946;2022-08-04T15:05:28;31.80;92.70
4615;DHT22;2320;51.362;6.946;2022-08-04T15:07:54;31.80;93.10
4615;DHT22;2320;51.362;6.946;2022-08-04T15:10:20;31.80;93.40
4615;DHT22;2320;51.362;6.946;2022-08-04T15:12:46;31.80;93.80
4615;DHT22;2320;51.362;6.946;2022-08-04T15:15:11;31.50;93.70
4615;DHT22;2320;51.362;6.946;2022-08-04T15:17:37;31.40;94.20
4615;DHT22;2320;51.362;6.946;2022-08-04T15:20:03;31.30;94.30
4615;DHT22;2320;51.362;6.946;2022-08-04T15:22:29;31.30;95.40
4615;DHT22;2320;51.362;6.946;2022-08-04T15:24:54;31.40;95.40
4615;DHT22;2320;51.362;6.946;2022-08-04T15:27:20;31.40;96.10
4615;DHT22;2320;51.362;6.946;2022-08-04T15:29:46;31.40;96.10
4615;DHT22;2320;51.362;6.946;2022-08-04T15:32:14;31.50;96.10
4615;DHT22;2320;51.362;6.946;2022-08-04T15:34:44;31.50;96.40
4615;DHT22;2320;51.362;6.946;2022-08-04T15:37:10;31.50;96.90
4615;DHT22;2320;51.362;6.946;2022-08-04T15:39:42;31.40;97.20
4615;DHT22;2320;51.362;6.946;2022-08-04T15:42:22;31.40;97.70
4615;DHT22;2320;51.362;6.946;2022-08-04T15:45:11;31.40;98.10
4615;DHT22;2320;51.362;6.946;2022-08-04T15:47:39;31.40;98.40
4615;DHT22;2320;51.362;6.946;2022-08-04T15:50:08;31.20;99.50
4615;DHT22;2320;51.362;6.946;2022-08-04T15:55:31;31.00;99.90
4615;DHT22;2320;51.362;6.946;2022-08-04T15:58:04;30.90;99.90
4615;DHT22;2320;51.362;6.946;2022-08-04T16:08:25;29.70;99.90
4615;DHT22;2320;51.362;6.946;2022-08-04T16:10:52;29.60;99.90
4615;DHT22;2320;51.362;6.946;2022-08-04T16:13:21;29.30;99.90
4615;DHT22;2320;51.362;6.946;2022-08-04T16:15:51;29.30;99.90
4615;DHT22;2320;51.362;6.946;2022-08-04T16:20:45;29.50;99.90
4615;DHT22;2320;51.362;6.946;2022-08-04T16:25:55;29.60;99.90
4615;DHT22;2320;51.362;6.946;2022-08-04T16:30:59;30.10;99.90
4615;DHT22;2320;51.362;6.946;2022-08-04T16:33:26;30.30;99.90
4615;DHT22;2320;51.362;6.946;2022-08-04T16:35:51;30.50;99.90
4615;DHT22;2320;51.362;6.946;2022-08-04T16:38:17;30.60;99.90
4615;DHT22;2320;51.362;6.946;2022-08-04T16:40:42;30.60;99.90
4615;DHT22;2320;51.362;6.946;2022-08-04T16:43:10;30.70;99.90
4615;DHT22;2320;51.362;6.946;2022-08-04T16:48:14;30.70;99.90
4615;DHT22;2320;51.362;6.946;2022-08-04T16:50:47;30.60;99.90
4615;DHT22;2320;51.362;6.946;2022-08-04T16:53:13;30.60;99.90
4615;DHT22;2320;51.362;6.946;2022-08-04T16:55:44;30.50;99.90
4615;DHT22;2320;51.362;6.946;2022-08-04T16:58:10;30.40;99.90
4615;DHT22;2320;51.362;6.946;2022-08-04T17:00:36;30.20;99.90
4615;DHT22;2320;51.362;6.946;2022-08-04T17:03:05;30.30;99.90
4615;DHT22;2320;51.362;6.946;2022-08-04T17:05:31;30.40;99.90
4615;DHT22;2320;51.362;6.946;2022-08-04T17:07:57;30.30;99.90
4615;DHT22;2320;51.362;6.946;2022-08-04T17:10:31;30.30;99.90
4615;DHT22;2320;51.362;6.946;2022-08-04T17:12:58;30.30;99.90
4615;DHT22;2320;51.362;6.946;2022-08-04T17:15:23;30.20;99.90
4615;DHT22;2320;51.362;6.946;2022-08-04T17:17:49;30.00;99.90
4615;DHT22;2320;51.362;6.946;2022-08-04T17:20:15;30.00;99.90
4615;DHT22;2320;51.362;6.946;2022-08-04T17:22:41;29.90;99.90
4615;DHT22;2320;51.362;6.946;2022-08-04T17:25:07;29.90;99.90
4615;DHT22;2320;51.362;6.946;2022-08-04T17:27:32;29.80;99.90
4615;DHT22;2320;51.362;6.946;2022-08-04T17:29:58;29.60;99.90
4615;DHT22;2320;51.362;6.946;2022-08-04T17:32:24;29.40;99.90
4615;DHT22;2320;51.362;6.946;2022-08-04T17:34:50;29.40;99.90
4615;DHT22;2320;51.362;6.946;2022-08-04T17:37:16;29.30;99.90
4615;DHT22;2320;51.362;6.946;2022-08-04T17:39:41;29.20;99.90
4615;DHT22;2320;51.362;6.946;2022-08-04T17:42:07;29.30;99.90
4615;DHT22;2320;51.362;6.946;2022-08-04T17:44:33;29.20;99.90
4615;DHT22;2320;51.362;6.946;2022-08-04T17:46:59;29.20;99.90
4615;DHT22;2320;51.362;6.946;2022-08-04T17:49:31;29.20;99.90
4615;DHT22;2320;51.362;6.946;2022-08-04T17:51:57;28.90;99.90
4615;DHT22;2320;51.362;6.946;2022-08-04T17:56:51;28.90;99.90
4615;DHT22;2320;51.362;6.946;2022-08-04T17:59:19;28.70;99.90
4615;DHT22;2320;51.362;6.946;2022-08-04T18:06:58;28.70;99.90
4615;DHT22;2320;51.362;6.946;2022-08-04T18:09:27;28.60;99.90
4615;DHT22;2320;51.362;6.946;2022-08-04T18:11:57;28.60;99.90
4615;DHT22;2320;51.362;6.946;2022-08-04T18:14:23;28.60;99.90
4615;DHT22;2320;51.362;6.946;2022-08-04T18:16:50;28.50;99.90
4615;DHT22;2320;51.362;6.946;2022-08-04T18:19:15;28.50;99.90
4615;DHT22;2320;51.362;6.946;2022-08-04T18:21:41;28.30;99.90
4615;DHT22;2320;51.362;6.946;2022-08-04T18:24:08;28.40;99.90
4615;DHT22;2320;51.362;6.946;2022-08-04T18:26:33;28.20;99.90
4615;DHT22;2320;51.362;6.946;2022-08-04T18:29:03;28.20;99.90
4615;DHT22;2320;51.362;6.946;2022-08-04T18:31:29;28.00;99.90
4615;DHT22;2320;51.362;6.946;2022-08-04T18:33:54;27.90;99.90
4615;DHT22;2320;51.362;6.946;2022-08-04T18:36:20;27.70;99.90
4615;DHT22;2320;51.362;6.946;2022-08-04T18:38:45;27.70;99.90
4615;DHT22;2320;51.362;6.946;2022-08-04T18:41:11;27.50;99.90
4615;DHT22;2320;51.362;6.946;2022-08-04T18:43:36;27.40;99.90
4615;DHT22;2320;51.362;6.946;2022-08-04T18:46:02;27.20;99.90
4615;DHT22;2320;51.362;6.946;2022-08-04T18:48:28;27.20;99.90
4615;DHT22;2320;51.362;6.946;2022-08-04T18:50:54;27.00;99.90
4615;DHT22;2320;51.362;6.946;2022-08-04T18:53:20;26.80;99.90
4615;DHT22;2320;51.362;6.946;2022-08-04T18:55:45;26.90;99.90
4615;DHT22;2320;51.362;6.946;2022-08-04T18:58:11;26.90;99.90
4615;DHT22;2320;51.362;6.946;2022-08-04T19:00:36;26.90;99.90
4615;DHT22;2320;51.362;6.946;2022-08-04T19:03:03;26.80;99.90
4615;DHT22;2320;51.362;6.946;2022-08-04T19:05:28;26.70;99.90
4615;DHT22;2320;51.362;6.946;2022-08-04T19:07:54;26.60;99.90
4615;DHT22;2320;51.362;6.946;2022-08-04T19:10:19;26.40;99.90
4615;DHT22;2320;51.362;6.946;2022-08-04T19:12:45;26.40;99.90
4615;DHT22;2320;51.362;6.946;2022-08-04T19:15:10;26.30;99.90
4615;DHT22;2320;51.362;6.946;2022-08-04T19:17:36;26.30;99.90
4615;DHT22;2320;51.362;6.946;2022-08-04T19:20:02;26.20;99.90
4615;DHT22;2320;51.362;6.946;2022-08-04T19:22:28;26.10;99.90
4615;DHT22;2320;51.362;6.946;2022-08-04T19:24:54;26.10;99.90
4615;DHT22;2320;51.362;6.946;2022-08-04T19:27:19;26.10;99.90
4615;DHT22;2320;51.362;6.946;2022-08-04T19:29:45;26.00;99.90
4615;DHT22;2320;51.362;6.946;2022-08-04T19:32:11;26.00;99.90
4615;DHT22;2320;51.362;6.946;2022-08-04T19:34:37;25.90;99.90
4615;DHT22;2320;51.362;6.946;2022-08-04T19:37:02;25.70;99.90
4615;DHT22;2320;51.362;6.946;2022-08-04T19:39:28;25.70;99.90
4615;DHT22;2320;51.362;6.946;2022-08-04T19:41:53;25.70;99.90
4615;DHT22;2320;51.362;6.946;2022-08-04T19:44:19;25.50;99.90
4615;DHT22;2320;51.362;6.946;2022-08-04T19:46:44;25.50;99.90
4615;DHT22;2320;51.362;6.946;2022-08-04T19:49:11;25.40;99.90
4615;DHT22;2320;51.362;6.946;2022-08-04T19:51:36;25.30;99.90
4615;DHT22;2320;51.362;6.946;2022-08-04T19:54:03;25.20;99.90
4615;DHT22;2320;51.362;6.946;2022-08-04T19:56:29;25.20;99.90
4615;DHT22;2320;51.362;6.946;2022-08-04T19:58:54;25.10;99.90
4615;DHT22;2320;51.362;6.946;2022-08-04T20:01:20;25.10;99.90
4615;DHT22;2320;51.362;6.946;2022-08-04T20:03:45;25.00;99.90
4615;DHT22;2320;51.362;6.946;2022-08-04T20:06:11;24.90;99.90
4615;DHT22;2320;51.362;6.946;2022-08-04T20:08:37;24.90;99.90
4615;DHT22;2320;51.362;6.946;2022-08-04T20:11:02;24.90;99.90
4615;DHT22;2320;51.362;6.946;2022-08-04T20:13:28;24.90;99.90
4615;DHT22;2320;51.362;6.946;2022-08-04T20:15:53;24.90;99.90
4615;DHT22;2320;51.362;6.946;2022-08-04T20:18:19;24.70;99.90
4615;DHT22;2320;51.362;6.946;2022-08-04T20:20:44;24.70;99.90
4615;DHT22;2320;51.362;6.946;2022-08-04T20:23:10;24.70;99.90
4615;DHT22;2320;51.362;6.946;2022-08-04T20:25:35;24.60;99.90
4615;DHT22;2320;51.362;6.946;2022-08-04T20:28:01;24.60;99.90
4615;DHT22;2320;51.362;6.946;2022-08-04T20:30:27;24.50;99.90
4615;DHT22;2320;51.362;6.946;2022-08-04T20:32:53;24.50;99.90